createdAt,value
2017-07-15T00:00:46.320Z,88.90
2017-07-15T00:03:14.770Z,89.50
2017-07-15T00:05:43.343Z,90.00
2017-07-15T00:08:13.011Z,90.10
2017-07-15T00:10:42.779Z,92.00
2017-07-15T00:13:11.243Z,92.20
2017-07-15T00:15:40.096Z,92.50
2017-07-15T00:18:08.945Z,92.40
2017-07-15T00:20:37.466Z,94.30
2017-07-15T00:23:06.323Z,93.60
2017-07-15T00:25:36.452Z,94.40
2017-07-15T00:28:06.041Z,94.80
2017-07-15T00:30:34.671Z,95.20
2017-07-15T00:33:03.520Z,96.60
2017-07-15T00:35:32.000Z,95.70
2017-07-15T00:38:00.895Z,95.70
2017-07-15T00:40:29.345Z,96.90
2017-07-15T00:42:58.418Z,97.00
2017-07-15T00:45:26.945Z,97.10
2017-07-15T00:47:55.464Z,97.80
2017-07-15T00:50:24.325Z,98.80
2017-07-15T00:52:52.848Z,98.60
2017-07-15T00:55:21.282Z,98.40
2017-07-15T00:57:49.751Z,98.50
2017-07-15T01:00:19.077Z,98.90
2017-07-15T01:02:47.982Z,97.90
2017-07-15T01:05:16.434Z,98.70
2017-07-15T01:07:45.272Z,99.30
2017-07-15T01:10:14.165Z,98.80
2017-07-15T01:12:43.014Z,98.80
2017-07-15T01:15:12.004Z,98.40
2017-07-15T01:17:40.898Z,97.50
2017-07-15T01:20:09.385Z,97.70
2017-07-15T01:22:39.439Z,98.10
2017-07-15T01:25:08.302Z,98.70
2017-07-15T01:27:37.147Z,98.00
2017-07-15T01:30:07.064Z,98.00
2017-07-15T01:32:35.948Z,98.70
2017-07-15T01:35:04.891Z,98.90
2017-07-15T01:37:33.347Z,99.20
2017-07-15T01:40:02.209Z,98.80
2017-07-15T01:42:31.509Z,98.40
2017-07-15T01:44:59.937Z,98.70
2017-07-15T01:47:28.806Z,99.10
2017-07-15T01:49:57.684Z,99.40
2017-07-15T01:52:26.922Z,99.90
2017-07-15T01:54:56.288Z,99.50
2017-07-15T01:57:24.402Z,99.60
2017-07-15T01:59:52.858Z,99.30
2017-07-15T02:02:21.366Z,99.50
2017-07-15T02:04:49.807Z,99.90
2017-07-15T02:07:18.981Z,99.00
2017-07-15T02:09:47.482Z,98.80
2017-07-15T02:12:15.943Z,98.90
2017-07-15T02:14:44.844Z,98.10
2017-07-15T02:17:14.489Z,96.80
2017-07-15T02:19:42.953Z,97.50
2017-07-15T02:22:11.439Z,97.50
2017-07-15T02:24:39.904Z,97.50
2017-07-15T02:27:08.418Z,96.90
2017-07-15T02:29:36.895Z,97.20
2017-07-15T02:32:05.348Z,97.10
2017-07-15T02:34:34.255Z,96.80
2017-07-15T02:37:02.768Z,97.10
2017-07-15T02:39:31.611Z,97.40
2017-07-15T02:42:00.448Z,97.40
2017-07-15T02:44:29.507Z,96.20
2017-07-15T02:46:58.368Z,96.90
2017-07-15T02:49:27.809Z,97.50
2017-07-15T02:51:56.640Z,96.90
2017-07-15T02:54:25.097Z,96.50
2017-07-15T02:56:54.416Z,96.90
2017-07-15T02:59:23.097Z,96.90
2017-07-15T03:01:51.925Z,97.00
2017-07-15T03:04:20.388Z,97.50
2017-07-15T03:06:48.871Z,97.80
2017-07-15T03:09:17.698Z,98.10
2017-07-15T03:11:46.147Z,97.90
2017-07-15T03:14:15.054Z,98.40
2017-07-15T03:16:43.532Z,98.50
2017-07-15T03:19:12.415Z,98.20
2017-07-15T03:21:41.830Z,98.40
2017-07-15T03:24:10.451Z,98.00
2017-07-15T03:27:01.318Z,98.50
2017-07-15T03:29:30.284Z,98.10
2017-07-15T03:31:58.743Z,98.00
2017-07-15T03:34:27.686Z,98.60
2017-07-15T03:36:56.554Z,98.50
2017-07-15T03:39:25.191Z,98.40
2017-07-15T03:41:53.686Z,98.40
2017-07-15T03:44:22.347Z,98.40
2017-07-15T03:46:51.218Z,98.30
2017-07-15T03:49:20.314Z,98.40
2017-07-15T03:51:49.203Z,98.70
2017-07-15T03:54:17.644Z,98.80
2017-07-15T03:56:46.153Z,98.40
2017-07-15T03:59:14.992Z,97.50
2017-07-15T04:01:44.577Z,96.90
2017-07-15T04:04:13.030Z,96.80
2017-07-15T04:06:41.540Z,96.00
2017-07-15T04:09:10.388Z,96.30
2017-07-15T04:11:38.882Z,96.50
2017-07-15T04:14:08.103Z,97.10
2017-07-15T04:16:36.998Z,96.50
2017-07-15T04:19:05.868Z,96.20
2017-07-15T04:21:34.938Z,96.50
2017-07-15T04:24:03.842Z,96.40
2017-07-15T04:26:33.064Z,97.10
2017-07-15T04:29:01.530Z,96.60
2017-07-15T04:31:30.410Z,96.90
2017-07-15T04:33:58.873Z,97.00
2017-07-15T04:36:27.778Z,96.50
2017-07-15T04:38:56.269Z,96.80
2017-07-15T04:41:25.117Z,96.20
2017-07-15T04:43:54.166Z,96.20
2017-07-15T04:46:23.058Z,95.10
2017-07-15T04:48:51.989Z,94.70
2017-07-15T04:51:20.829Z,93.70
2017-07-15T04:53:50.453Z,92.60
2017-07-15T04:56:18.901Z,93.10
2017-07-15T04:58:47.757Z,93.00
2017-07-15T05:01:16.709Z,94.30
2017-07-15T05:03:46.066Z,93.40
2017-07-15T05:06:14.904Z,93.10
2017-07-15T05:08:43.830Z,91.20
2017-07-15T05:11:12.677Z,87.50
2017-07-15T05:13:41.909Z,86.10
2017-07-15T05:16:10.794Z,86.70
2017-07-15T05:18:39.631Z,83.40
2017-07-15T05:21:08.085Z,83.00
2017-07-15T05:23:36.968Z,81.70
2017-07-15T05:26:05.819Z,82.30
2017-07-15T05:28:35.043Z,81.80
2017-07-15T05:31:03.950Z,80.80
2017-07-15T05:33:32.788Z,77.30
2017-07-15T05:36:01.631Z,70.60
2017-07-15T05:38:30.506Z,71.70
2017-07-15T05:40:59.700Z,75.30
2017-07-15T05:43:28.541Z,80.10
2017-07-15T05:45:57.829Z,80.30
2017-07-15T05:48:26.324Z,79.30
2017-07-15T05:50:55.992Z,80.30
2017-07-15T05:53:24.502Z,82.40
2017-07-15T05:55:52.947Z,81.80
2017-07-15T05:58:21.785Z,81.10
2017-07-15T06:00:51.495Z,81.20
2017-07-15T06:03:20.332Z,79.00
2017-07-15T06:05:49.253Z,82.10
2017-07-15T06:08:18.429Z,81.70
2017-07-15T06:10:47.273Z,81.30
2017-07-15T06:13:16.103Z,81.20
2017-07-15T06:15:44.612Z,80.20
2017-07-15T06:18:13.450Z,77.10
2017-07-15T06:20:42.095Z,77.20
2017-07-15T06:23:10.774Z,74.70
2017-07-15T06:25:39.791Z,64.60
2017-07-15T06:28:09.033Z,60.40
2017-07-15T06:30:37.490Z,65.10
2017-07-15T06:33:06.335Z,65.20
2017-07-15T06:35:35.241Z,65.50
2017-07-15T06:38:03.691Z,66.80
2017-07-15T06:40:32.525Z,64.60
2017-07-15T06:43:00.840Z,63.20
2017-07-15T06:45:29.703Z,61.40
2017-07-15T06:47:58.550Z,62.30
2017-07-15T06:50:27.049Z,64.40
2017-07-15T06:52:55.895Z,61.00
2017-07-15T06:55:24.744Z,59.30
2017-07-15T06:57:53.700Z,55.90
2017-07-15T07:00:22.535Z,54.10
2017-07-15T07:02:51.371Z,51.00
2017-07-15T07:05:20.303Z,51.90
2017-07-15T07:07:49.345Z,58.70
2017-07-15T07:10:18.212Z,59.00
2017-07-15T07:12:47.084Z,51.70
2017-07-15T07:15:16.295Z,50.30
2017-07-15T07:17:45.199Z,50.80
2017-07-15T07:20:14.042Z,53.40
2017-07-15T07:22:42.880Z,54.30
2017-07-15T07:25:11.749Z,50.20
2017-07-15T07:27:40.207Z,47.60
2017-07-15T07:30:08.716Z,44.30
2017-07-15T07:32:37.558Z,42.60
2017-07-15T07:35:06.517Z,41.90
2017-07-15T07:37:35.764Z,40.20
2017-07-15T07:40:04.213Z,43.90
2017-07-15T07:42:32.661Z,41.80
2017-07-15T07:45:01.729Z,42.40
2017-07-15T07:47:30.581Z,46.60
2017-07-15T07:49:59.036Z,42.50
2017-07-15T07:52:27.563Z,42.60
2017-07-15T07:54:56.013Z,45.90
2017-07-15T07:57:24.856Z,50.90
2017-07-15T07:59:54.265Z,51.90
2017-07-15T08:02:23.098Z,50.10
2017-07-15T08:04:52.705Z,43.80
2017-07-15T08:07:21.152Z,46.80
2017-07-15T08:09:50.731Z,41.20
2017-07-15T08:12:19.175Z,36.60
2017-07-15T08:14:47.819Z,40.40
2017-07-15T08:17:16.336Z,44.50
2017-07-15T08:19:45.191Z,41.90
2017-07-15T08:22:14.430Z,44.50
2017-07-15T08:24:42.878Z,44.10
2017-07-15T08:27:11.753Z,46.30
2017-07-15T08:29:40.592Z,49.60
2017-07-15T08:32:09.032Z,46.60
2017-07-15T08:34:37.523Z,43.90
2017-07-15T08:37:06.359Z,41.40
2017-07-15T08:39:35.204Z,37.50
2017-07-15T08:42:04.148Z,36.10
2017-07-15T08:44:33.250Z,36.60
2017-07-15T08:47:02.298Z,38.20
2017-07-15T08:49:31.361Z,37.70
2017-07-15T08:51:59.816Z,36.80
2017-07-15T08:54:29.024Z,38.40
2017-07-15T08:56:58.276Z,39.40
2017-07-15T08:59:26.908Z,43.00
2017-07-15T09:01:55.768Z,37.40
2017-07-15T09:04:24.278Z,35.50
2017-07-15T09:06:53.140Z,33.70
2017-07-15T09:09:21.579Z,38.60
2017-07-15T09:11:50.813Z,41.30
2017-07-15T09:14:19.256Z,39.70
2017-07-15T09:16:49.648Z,36.60
2017-07-15T09:19:18.874Z,37.80
2017-07-15T09:21:47.776Z,39.70
2017-07-15T09:24:16.526Z,35.80
2017-07-15T09:26:45.187Z,34.00
2017-07-15T09:29:13.677Z,33.20
2017-07-15T09:31:43.039Z,39.60
2017-07-15T09:34:11.909Z,42.40
2017-07-15T09:36:40.270Z,36.60
2017-07-15T09:39:09.098Z,31.60
2017-07-15T09:41:38.905Z,30.80
2017-07-15T09:44:07.749Z,32.70
2017-07-15T09:46:36.198Z,33.70
2017-07-15T09:49:05.094Z,33.90
2017-07-15T09:51:34.024Z,34.50
2017-07-15T09:54:03.743Z,32.90
2017-07-15T09:56:32.593Z,32.40
2017-07-15T09:59:02.636Z,36.10
2017-07-15T10:01:32.102Z,38.90
2017-07-15T10:04:00.998Z,43.20
2017-07-15T10:06:29.429Z,42.30
2017-07-15T10:08:57.873Z,39.20
2017-07-15T10:11:27.210Z,40.50
2017-07-15T10:13:55.655Z,38.80
2017-07-15T10:16:25.687Z,39.20
2017-07-15T10:18:54.129Z,40.70
2017-07-15T10:21:22.912Z,41.60
2017-07-15T10:23:51.824Z,42.20
2017-07-15T10:26:20.658Z,40.40
2017-07-15T10:28:49.092Z,36.80
2017-07-15T10:31:17.616Z,35.40
2017-07-15T10:33:46.039Z,32.60
2017-07-15T10:36:14.873Z,29.40
2017-07-15T10:38:43.378Z,27.60
2017-07-15T10:41:12.215Z,25.60
2017-07-15T10:43:40.775Z,23.10
2017-07-15T10:46:09.832Z,25.40
2017-07-15T10:48:38.288Z,29.20
2017-07-15T10:51:07.570Z,33.20
2017-07-15T10:53:36.024Z,37.00
2017-07-15T10:56:04.459Z,39.40
2017-07-15T10:58:33.391Z,38.60
2017-07-15T11:01:02.251Z,40.20
2017-07-15T11:03:31.111Z,35.40
2017-07-15T11:05:59.997Z,31.70
2017-07-15T11:08:28.885Z,31.90
2017-07-15T11:10:57.744Z,35.50
2017-07-15T11:13:26.620Z,38.20
2017-07-15T11:15:55.063Z,41.20
2017-07-15T11:18:24.277Z,42.30
2017-07-15T11:20:53.116Z,42.30
2017-07-15T11:23:22.075Z,41.60
2017-07-15T11:25:50.604Z,34.30
2017-07-15T11:28:19.434Z,30.40
2017-07-15T11:30:47.895Z,32.70
2017-07-15T11:33:17.169Z,35.90
2017-07-15T11:35:45.625Z,39.50
2017-07-15T11:38:14.070Z,41.20
2017-07-15T11:40:42.585Z,32.70
2017-07-15T11:43:11.467Z,30.70
2017-07-15T11:45:40.311Z,26.20
2017-07-15T11:48:09.580Z,26.20
2017-07-15T11:50:38.446Z,29.60
2017-07-15T11:53:08.135Z,35.30
2017-07-15T11:55:37.010Z,38.70
2017-07-15T11:58:05.651Z,38.80
2017-07-15T12:00:34.132Z,39.80
2017-07-15T12:03:02.625Z,37.10
2017-07-15T12:05:31.069Z,30.60
2017-07-15T12:07:59.499Z,28.00
2017-07-15T12:10:28.374Z,25.60
2017-07-15T12:12:57.251Z,24.30
2017-07-15T12:15:26.156Z,26.20
2017-07-15T12:17:55.395Z,30.00
2017-07-15T12:20:24.596Z,34.30
2017-07-15T12:22:53.841Z,38.20
2017-07-15T12:25:22.276Z,38.80
2017-07-15T12:27:50.806Z,33.20
2017-07-15T12:30:19.658Z,27.20
2017-07-15T12:32:48.113Z,28.50
2017-07-15T12:35:17.364Z,33.80
2017-07-15T12:37:47.171Z,33.90
2017-07-15T12:40:16.389Z,37.70
2017-07-15T12:42:44.822Z,39.10
2017-07-15T12:45:13.423Z,40.00
2017-07-15T12:47:42.318Z,34.80
2017-07-15T12:50:10.752Z,29.90
2017-07-15T12:52:40.023Z,29.20
2017-07-15T12:55:08.452Z,30.00
2017-07-15T12:57:37.312Z,33.00
2017-07-15T13:00:06.595Z,34.20
2017-07-15T13:02:35.061Z,37.30
2017-07-15T13:05:03.991Z,38.40
2017-07-15T13:07:32.827Z,38.20
2017-07-15T13:10:01.320Z,32.80
2017-07-15T13:12:30.427Z,27.00
2017-07-15T13:15:00.021Z,29.70
2017-07-15T13:17:28.456Z,25.80
2017-07-15T13:19:57.207Z,24.50
2017-07-15T13:22:27.388Z,26.60
2017-07-15T13:24:56.233Z,24.70
2017-07-15T13:27:25.055Z,27.60
2017-07-15T13:29:54.686Z,29.80
2017-07-15T13:32:23.587Z,32.50
2017-07-15T13:34:52.856Z,29.20
2017-07-15T13:37:21.687Z,27.60
2017-07-15T13:39:50.747Z,29.00
2017-07-15T13:42:19.579Z,31.10
2017-07-15T13:44:48.032Z,35.00
2017-07-15T13:47:16.541Z,36.40
2017-07-15T13:49:45.691Z,34.90
2017-07-15T13:52:14.720Z,34.80
2017-07-15T13:54:45.681Z,32.80
2017-07-15T13:57:14.110Z,31.00
2017-07-15T13:59:42.573Z,27.50
2017-07-15T14:02:11.827Z,24.10
2017-07-15T14:04:40.720Z,23.50
2017-07-15T14:07:09.557Z,21.90
2017-07-15T14:09:38.412Z,22.20
2017-07-15T14:12:08.271Z,23.30
2017-07-15T14:14:36.750Z,24.40
2017-07-15T14:17:05.619Z,28.20
2017-07-15T14:19:34.119Z,27.60
2017-07-15T14:22:03.206Z,28.90
2017-07-15T14:24:31.642Z,29.60
2017-07-15T14:27:00.516Z,30.40
2017-07-15T14:29:29.372Z,27.90
2017-07-15T14:31:57.912Z,26.10
2017-07-15T14:34:27.168Z,25.30
2017-07-15T14:36:56.232Z,26.00
2017-07-15T14:39:25.486Z,26.10
2017-07-15T14:41:54.323Z,25.00
2017-07-15T14:44:23.676Z,24.40
2017-07-15T14:46:52.519Z,22.10
2017-07-15T14:49:20.998Z,24.50
2017-07-15T14:51:49.458Z,26.60
2017-07-15T14:54:17.974Z,31.40
2017-07-15T14:56:46.418Z,34.70
2017-07-15T14:59:14.863Z,36.40
2017-07-15T15:01:43.353Z,36.70
2017-07-15T15:04:12.188Z,36.10
2017-07-15T15:06:42.318Z,37.20
2017-07-15T15:09:10.821Z,37.10
2017-07-15T15:11:39.394Z,36.90
2017-07-15T15:14:07.922Z,37.40
2017-07-15T15:16:36.755Z,38.00
2017-07-15T15:19:05.180Z,38.30
2017-07-15T15:21:34.079Z,37.70
2017-07-15T15:24:02.529Z,38.50
2017-07-15T15:26:31.378Z,38.20
2017-07-15T15:29:00.289Z,38.20
2017-07-15T15:31:28.725Z,37.70
2017-07-15T15:33:58.187Z,37.30
2017-07-15T15:36:27.139Z,37.30
2017-07-15T15:38:56.150Z,36.60
2017-07-15T15:41:24.981Z,37.20
2017-07-15T15:43:53.999Z,36.80
2017-07-15T15:46:22.833Z,35.30
2017-07-15T15:48:51.664Z,32.40
2017-07-15T15:51:22.121Z,32.30
2017-07-15T15:53:50.552Z,35.10
2017-07-15T15:56:18.994Z,35.40
2017-07-15T15:58:47.741Z,34.40
2017-07-15T16:01:16.599Z,33.60
2017-07-15T16:03:45.424Z,30.40
2017-07-15T16:06:13.932Z,30.00
2017-07-15T16:08:43.221Z,29.50
2017-07-15T16:11:12.278Z,30.20
2017-07-15T16:13:41.559Z,30.40
2017-07-15T16:16:10.065Z,33.00
2017-07-15T16:18:38.902Z,34.10
2017-07-15T16:21:07.407Z,36.00
2017-07-15T16:23:36.239Z,36.70
2017-07-15T16:26:05.902Z,38.60
2017-07-15T16:28:34.356Z,37.10
2017-07-15T16:31:02.812Z,36.50
2017-07-15T16:33:31.702Z,35.60
2017-07-15T16:36:00.985Z,35.30
2017-07-15T16:38:29.438Z,34.30
2017-07-15T16:40:57.962Z,34.90
2017-07-15T16:43:26.793Z,36.70
2017-07-15T16:45:55.238Z,39.40
2017-07-15T16:48:24.244Z,39.50
2017-07-15T16:50:52.668Z,37.80
2017-07-15T16:53:21.324Z,38.90
2017-07-15T16:55:50.224Z,40.90
2017-07-15T16:58:18.669Z,40.50
2017-07-15T17:00:47.136Z,39.50
2017-07-15T17:03:16.034Z,39.10
2017-07-15T17:05:44.471Z,40.10
2017-07-15T17:08:13.386Z,40.40
2017-07-15T17:10:42.236Z,41.50
2017-07-15T17:13:11.083Z,39.00
2017-07-15T17:15:40.093Z,40.80
2017-07-15T17:18:08.534Z,38.20
2017-07-15T17:20:37.375Z,38.50
2017-07-15T17:23:06.457Z,39.80
2017-07-15T17:25:35.298Z,39.60
2017-07-15T17:28:04.151Z,40.10
2017-07-15T17:30:33.404Z,41.00
2017-07-15T17:33:02.244Z,41.80
2017-07-15T17:35:30.668Z,40.70
2017-07-15T17:37:59.592Z,41.90
2017-07-15T17:40:28.040Z,42.80
2017-07-15T17:42:56.913Z,43.50
2017-07-15T17:45:26.024Z,43.60
2017-07-15T17:47:55.248Z,45.40
2017-07-15T17:50:24.861Z,47.50
2017-07-15T17:52:53.871Z,47.20
2017-07-15T17:55:22.308Z,47.50
2017-07-15T17:57:51.144Z,48.20
2017-07-15T18:00:20.096Z,49.20
2017-07-15T18:02:48.558Z,49.50
2017-07-15T18:05:17.006Z,49.60
2017-07-15T18:07:45.905Z,50.00
2017-07-15T18:10:14.329Z,51.90
2017-07-15T18:12:43.197Z,52.80
2017-07-15T18:15:11.672Z,54.10
2017-07-15T18:17:40.127Z,55.00
2017-07-15T18:20:09.016Z,55.70
2017-07-15T18:22:38.075Z,56.90
2017-07-15T18:25:06.512Z,58.10
2017-07-15T18:27:35.110Z,59.50
2017-07-15T18:30:04.012Z,59.60
2017-07-15T18:32:32.479Z,60.20
2017-07-15T18:35:00.916Z,60.70
2017-07-15T18:37:29.449Z,61.50
2017-07-15T18:39:58.301Z,62.60
2017-07-15T18:42:26.737Z,62.50
2017-07-15T18:44:55.645Z,62.10
2017-07-15T18:47:24.550Z,63.70
2017-07-15T18:49:53.579Z,62.90
2017-07-15T18:52:23.318Z,64.20
2017-07-15T18:54:52.268Z,64.20
2017-07-15T18:57:21.348Z,64.80
2017-07-15T18:59:49.841Z,65.00
2017-07-15T19:02:18.667Z,65.20
2017-07-15T19:04:47.091Z,66.80
2017-07-15T19:07:16.396Z,67.80
2017-07-15T19:09:44.833Z,68.10
2017-07-15T19:12:13.652Z,67.90
2017-07-15T19:14:42.153Z,68.40
2017-07-15T19:17:10.584Z,68.50
2017-07-15T19:19:39.410Z,69.60
2017-07-15T19:22:08.290Z,69.90
2017-07-15T19:24:36.798Z,69.90
2017-07-15T19:27:05.227Z,70.40
2017-07-15T19:29:33.660Z,71.10
2017-07-15T19:32:02.907Z,70.30
2017-07-15T19:34:31.736Z,69.80
2017-07-15T19:37:00.166Z,69.30
2017-07-15T19:39:28.641Z,70.10
2017-07-15T19:41:57.086Z,69.80
2017-07-15T19:44:26.428Z,71.20
2017-07-15T19:46:54.917Z,70.80
2017-07-15T19:49:23.349Z,72.00
2017-07-15T19:51:52.553Z,73.00
2017-07-15T19:54:21.032Z,72.60
2017-07-15T19:56:50.283Z,70.80
2017-07-15T19:59:18.807Z,71.20
2017-07-15T20:01:48.014Z,72.50
2017-07-15T20:04:16.897Z,74.30
2017-07-15T20:06:46.209Z,74.50
2017-07-15T20:09:14.643Z,74.10
2017-07-15T20:11:43.123Z,75.60
2017-07-15T20:14:11.552Z,75.70
2017-07-15T20:16:40.207Z,75.90
2017-07-15T20:19:09.196Z,76.70
2017-07-15T20:21:38.771Z,78.00
2017-07-15T20:24:07.217Z,80.20
2017-07-15T20:26:35.678Z,78.50
2017-07-15T20:29:04.551Z,76.00
2017-07-15T20:31:33.410Z,75.60
2017-07-15T20:34:03.644Z,76.00
2017-07-15T20:36:37.649Z,77.20
2017-07-15T20:39:06.162Z,77.50
2017-07-15T20:41:35.206Z,77.50
2017-07-15T20:44:03.698Z,76.60
2017-07-15T20:46:32.141Z,77.70
2017-07-15T20:49:01.009Z,77.90
2017-07-15T20:51:30.265Z,79.00
2017-07-15T20:54:15.734Z,80.80
2017-07-15T20:56:44.178Z,81.00
2017-07-15T20:59:13.376Z,83.00
2017-07-15T21:01:42.259Z,84.00
2017-07-15T21:04:11.106Z,84.80
2017-07-15T21:06:39.990Z,83.40
2017-07-15T21:09:09.024Z,82.40
2017-07-15T21:11:37.665Z,82.70
2017-07-15T21:14:06.779Z,82.50
2017-07-15T21:16:35.629Z,83.90
2017-07-15T21:19:04.354Z,85.00
2017-07-15T21:21:32.840Z,85.50
2017-07-15T21:24:01.681Z,86.70
2017-07-15T21:26:30.516Z,87.80
2017-07-15T21:28:58.993Z,89.20
2017-07-15T21:31:27.440Z,89.50
2017-07-15T21:33:56.061Z,90.50
2017-07-15T21:36:24.896Z,90.80
2017-07-15T21:38:53.326Z,91.00
2017-07-15T21:41:21.822Z,91.90
2017-07-15T21:43:50.834Z,92.00
2017-07-15T21:46:19.364Z,92.10
2017-07-15T21:48:47.848Z,92.20
2017-07-15T21:51:17.836Z,92.40
2017-07-15T21:53:46.292Z,92.60
2017-07-15T21:56:15.170Z,91.90
2017-07-15T21:58:44.102Z,92.60
2017-07-15T22:01:12.604Z,93.10
2017-07-15T22:03:41.064Z,92.80
2017-07-15T22:06:09.893Z,92.10
2017-07-15T22:08:38.801Z,92.10
2017-07-15T22:11:07.284Z,92.70
2017-07-15T22:13:36.501Z,93.30
2017-07-15T22:16:05.710Z,94.40
2017-07-15T22:18:34.206Z,93.70
2017-07-15T22:21:02.633Z,93.70
2017-07-15T22:23:31.067Z,93.10
2017-07-15T22:25:59.940Z,93.30
2017-07-15T22:28:29.192Z,94.10
2017-07-15T22:30:58.082Z,93.30
2017-07-15T22:33:26.519Z,92.80
2017-07-15T22:35:55.039Z,92.40
2017-07-15T22:38:23.509Z,92.10
2017-07-15T22:40:52.152Z,91.80
2017-07-15T22:43:20.919Z,92.40
2017-07-15T22:45:49.348Z,92.50
2017-07-15T22:48:17.787Z,92.80
2017-07-15T22:50:46.253Z,92.80
2017-07-15T22:53:14.693Z,92.80
2017-07-15T22:55:43.164Z,93.10
2017-07-15T22:58:12.391Z,93.10
2017-07-15T23:00:41.252Z,94.50
2017-07-15T23:03:09.691Z,94.40
2017-07-15T23:05:38.165Z,94.20
2017-07-15T23:08:06.614Z,93.80
2017-07-15T23:10:35.104Z,93.50
2017-07-15T23:13:03.932Z,93.40
2017-07-15T23:15:32.832Z,93.50
2017-07-15T23:18:01.260Z,93.70
2017-07-15T23:20:29.737Z,93.00
2017-07-15T23:22:58.163Z,93.40
2017-07-15T23:25:27.033Z,93.90
2017-07-15T23:27:55.998Z,93.80
2017-07-15T23:30:24.442Z,94.30
2017-07-15T23:32:53.317Z,94.20
2017-07-15T23:35:22.641Z,95.30
2017-07-15T23:37:51.073Z,95.20
2017-07-15T23:40:19.716Z,94.50
2017-07-15T23:42:48.924Z,94.80
2017-07-15T23:45:17.775Z,94.40
2017-07-15T23:47:46.206Z,95.50
2017-07-15T23:50:14.783Z,94.90
2017-07-15T23:52:43.652Z,94.90
2017-07-15T23:55:12.153Z,95.30
2017-07-15T23:57:41.064Z,95.00
